sensor_id;sensor_type;location;lat;lon;timestamp;pressure;altitude;pressure_sealevel;temperature;humidity
49341;BME280;35209;51.050;13.678;2024-03-17T00:00:32;149932.25;;;5.02;87.74
49341;BME280;35209;51.050;13.678;2024-03-17T00:05:33;149900.09;;;4.90;88.79
49341;BME280;35209;51.050;13.678;2024-03-17T00:10:34;149909.09;;;4.93;88.06
49341;BME280;35209;51.050;13.678;2024-03-17T00:15:35;149909.09;;;4.93;87.71
49341;BME280;35209;51.050;13.678;2024-03-17T00:20:36;149862.84;;;4.75;88.69
49341;BME280;35209;51.050;13.678;2024-03-17T00:25:39;149846.09;;;4.68;89.57
49341;BME280;35209;51.050;13.678;2024-03-17T00:30:40;149838.44;;;4.65;89.55
49341;BME280;35209;51.050;13.678;2024-03-17T00:35:41;149825.53;;;4.60;90.31
49341;BME280;35209;51.050;13.678;2024-03-17T00:40:42;149805.00;;;4.52;90.65
49341;BME280;35209;51.050;13.678;2024-03-17T00:45:51;149824.25;;;4.60;90.43
49341;BME280;35209;51.050;13.678;2024-03-17T00:50:56;149802.41;;;4.51;90.38
49341;BME280;35209;51.050;13.678;2024-03-17T00:55:57;149815.28;;;4.56;90.43
49341;BME280;35209;51.050;13.678;2024-03-17T01:00:58;149840.97;;;4.66;89.44
49341;BME280;35209;51.050;13.678;2024-03-17T01:05:59;149824.25;;;4.60;90.09
49341;BME280;35209;51.050;13.678;2024-03-17T01:11:00;149778.00;;;4.41;91.39
49341;BME280;35209;51.050;13.678;2024-03-17T01:16:01;149806.28;;;4.52;90.27
49341;BME280;35209;51.050;13.678;2024-03-17T01:21:03;149778.00;;;4.41;91.21
49341;BME280;35209;51.050;13.678;2024-03-17T01:26:04;149758.72;;;4.34;92.09
49341;BME280;35209;51.050;13.678;2024-03-17T01:31:08;149805.00;;;4.52;90.23
49341;BME280;35209;51.050;13.678;2024-03-17T01:36:09;149761.31;;;4.35;91.47
49341;BME280;35209;51.050;13.678;2024-03-17T01:41:10;149788.28;;;4.45;91.00
49341;BME280;35209;51.050;13.678;2024-03-17T01:46:13;149762.59;;;4.35;91.53
49341;BME280;35209;51.050;13.678;2024-03-17T01:51:15;149761.31;;;4.35;91.34
49341;BME280;35209;51.050;13.678;2024-03-17T01:56:16;149739.47;;;4.26;92.10
49341;BME280;35209;51.050;13.678;2024-03-17T02:01:18;149739.47;;;4.26;92.52
49341;BME280;35209;51.050;13.678;2024-03-17T02:06:18;149726.63;;;4.21;92.74
49341;BME280;35209;51.050;13.678;2024-03-17T02:11:28;149734.31;;;4.24;92.26
49341;BME280;35209;51.050;13.678;2024-03-17T02:16:29;149690.63;;;4.07;93.27
49341;BME280;35209;51.050;13.678;2024-03-17T02:21:29;149715.09;;;4.16;92.29
49341;BME280;35209;51.050;13.678;2024-03-17T02:26:30;149704.78;;;4.12;92.67
49341;BME280;35209;51.050;13.678;2024-03-17T02:31:31;149691.91;;;4.07;92.83
49341;BME280;35209;51.050;13.678;2024-03-17T02:36:32;149745.88;;;4.28;92.04
49341;BME280;35209;51.050;13.678;2024-03-17T02:41:32;149769.00;;;4.38;91.02
49341;BME280;35209;51.050;13.678;2024-03-17T02:46:33;149686.78;;;4.05;93.36
49341;BME280;35209;51.050;13.678;2024-03-17T02:51:35;149735.59;;;4.24;91.99
49341;BME280;35209;51.050;13.678;2024-03-17T02:56:35;149776.72;;;4.41;90.98
49341;BME280;35209;51.050;13.678;2024-03-17T03:01:36;149751.03;;;4.30;91.36
49341;BME280;35209;51.050;13.678;2024-03-17T03:06:38;149704.78;;;4.12;93.32
49341;BME280;35209;51.050;13.678;2024-03-17T03:11:39;149708.63;;;4.14;92.25
49341;BME280;35209;51.050;13.678;2024-03-17T03:16:40;149706.06;;;4.13;92.85
49341;BME280;35209;51.050;13.678;2024-03-17T03:21:41;149697.06;;;4.09;93.28
49341;BME280;35209;51.050;13.678;2024-03-17T03:26:43;149730.47;;;4.22;93.27
49341;BME280;35209;51.050;13.678;2024-03-17T03:31:44;149722.75;;;4.19;93.79
49341;BME280;35209;51.050;13.678;2024-03-17T03:36:44;149751.03;;;4.30;92.73
49341;BME280;35209;51.050;13.678;2024-03-17T03:41:46;149781.88;;;4.43;91.74
49341;BME280;35209;51.050;13.678;2024-03-17T03:46:47;149821.69;;;4.59;91.11
49341;BME280;35209;51.050;13.678;2024-03-17T03:51:47;149840.97;;;4.66;90.73
49341;BME280;35209;51.050;13.678;2024-03-17T03:56:48;149848.72;;;4.69;91.03
49341;BME280;35209;51.050;13.678;2024-03-17T04:01:49;149866.66;;;4.76;90.76
49341;BME280;35209;51.050;13.678;2024-03-17T04:06:50;149888.53;;;4.85;89.45
49341;BME280;35209;51.050;13.678;2024-03-17T04:11:50;149880.78;;;4.82;89.73
49341;BME280;35209;51.050;13.678;2024-03-17T04:16:51;149866.66;;;4.76;90.17
49341;BME280;35209;51.050;13.678;2024-03-17T04:21:54;149829.41;;;4.62;92.14
49341;BME280;35209;51.050;13.678;2024-03-17T04:26:55;149822.97;;;4.59;92.46
49341;BME280;35209;51.050;13.678;2024-03-17T04:31:55;149848.72;;;4.69;92.22
49341;BME280;35209;51.050;13.678;2024-03-17T04:36:57;149869.22;;;4.77;92.08
49341;BME280;35209;51.050;13.678;2024-03-17T04:41:58;149870.50;;;4.78;91.52
49341;BME280;35209;51.050;13.678;2024-03-17T04:47:01;149909.09;;;4.93;90.54
49341;BME280;35209;51.050;13.678;2024-03-17T04:52:03;149911.66;;;4.94;90.28
49341;BME280;35209;51.050;13.678;2024-03-17T04:57:04;149918.13;;;4.97;90.28
49341;BME280;35209;51.050;13.678;2024-03-17T05:02:05;149903.94;;;4.91;90.67
49341;BME280;35209;51.050;13.678;2024-03-17T05:07:06;149876.97;;;4.80;92.48
49341;BME280;35209;51.050;13.678;2024-03-17T05:12:07;149911.66;;;4.94;91.04
49341;BME280;35209;51.050;13.678;2024-03-17T05:17:08;149923.22;;;4.99;90.97
49341;BME280;35209;51.050;13.678;2024-03-17T05:22:09;149960.53;;;5.14;89.55
49341;BME280;35209;51.050;13.678;2024-03-17T05:27:10;149919.38;;;4.97;90.76
49341;BME280;35209;51.050;13.678;2024-03-17T05:32:11;149916.84;;;4.96;90.97
49341;BME280;35209;51.050;13.678;2024-03-17T05:37:12;149920.66;;;4.98;90.52
49341;BME280;35209;51.050;13.678;2024-03-17T05:42:13;149902.66;;;4.91;92.18
49341;BME280;35209;51.050;13.678;2024-03-17T05:47:13;149887.25;;;4.85;93.41
49341;BME280;35209;51.050;13.678;2024-03-17T05:52:14;149937.34;;;5.04;91.42
49341;BME280;35209;51.050;13.678;2024-03-17T05:57:15;149912.94;;;4.95;92.35
49341;BME280;35209;51.050;13.678;2024-03-17T06:02:16;149912.94;;;4.95;92.05
49341;BME280;35209;51.050;13.678;2024-03-17T06:07:19;149919.38;;;4.97;92.47
49341;BME280;35209;51.050;13.678;2024-03-17T06:12:20;149973.41;;;5.19;89.66
49341;BME280;35209;51.050;13.678;2024-03-17T06:17:20;149948.97;;;5.09;91.01
49341;BME280;35209;51.050;13.678;2024-03-17T06:22:21;149946.38;;;5.08;91.07
49341;BME280;35209;51.050;13.678;2024-03-17T06:27:23;149974.66;;;5.19;90.60
49341;BME280;35209;51.050;13.678;2024-03-17T06:32:24;150027.41;;;5.40;88.47
49341;BME280;35209;51.050;13.678;2024-03-17T06:37:25;150023.50;;;5.39;89.84
49341;BME280;35209;51.050;13.678;2024-03-17T06:42:26;150064.69;;;5.55;87.44
49341;BME280;35209;51.050;13.678;2024-03-17T06:47:27;150074.97;;;5.59;87.81
49341;BME280;35209;51.050;13.678;2024-03-17T06:52:27;150087.84;;;5.64;87.34
49341;BME280;35209;51.050;13.678;2024-03-17T06:57:28;150037.66;;;5.44;88.00
49341;BME280;35209;51.050;13.678;2024-03-17T07:02:29;150062.13;;;5.54;87.46
49341;BME280;35209;51.050;13.678;2024-03-17T07:07:30;150076.25;;;5.60;86.81
49341;BME280;35209;51.050;13.678;2024-03-17T07:12:30;150129.00;;;5.80;83.57
49341;BME280;35209;51.050;13.678;2024-03-17T07:17:32;150099.41;;;5.69;84.13
49341;BME280;35209;51.050;13.678;2024-03-17T07:22:33;150132.84;;;5.82;84.20
49341;BME280;35209;51.050;13.678;2024-03-17T07:27:33;150170.19;;;5.97;81.26
49341;BME280;35209;51.050;13.678;2024-03-17T07:32:34;150137.97;;;5.84;84.51
49341;BME280;35209;51.050;13.678;2024-03-17T07:37:35;150143.16;;;5.86;85.71
49341;BME280;35209;51.050;13.678;2024-03-17T07:42:36;150193.34;;;6.06;83.75
49341;BME280;35209;51.050;13.678;2024-03-17T07:47:40;150207.53;;;6.12;84.23
49341;BME280;35209;51.050;13.678;2024-03-17T07:52:41;150298.91;;;6.48;80.20
49341;BME280;35209;51.050;13.678;2024-03-17T07:57:41;150305.31;;;6.50;81.17
49341;BME280;35209;51.050;13.678;2024-03-17T08:02:44;150266.72;;;6.35;81.59
49341;BME280;35209;51.050;13.678;2024-03-17T08:07:46;150322.06;;;6.57;78.37
49341;BME280;35209;51.050;13.678;2024-03-17T08:12:46;150318.22;;;6.55;79.39
49341;BME280;35209;51.050;13.678;2024-03-17T08:17:47;150356.81;;;6.71;78.57
49341;BME280;35209;51.050;13.678;2024-03-17T08:22:48;150315.59;;;6.54;78.13
49341;BME280;35209;51.050;13.678;2024-03-17T08:27:49;150386.44;;;6.82;77.24
49341;BME280;35209;51.050;13.678;2024-03-17T08:32:50;150421.19;;;6.96;77.63
49341;BME280;35209;51.050;13.678;2024-03-17T08:37:50;150490.72;;;7.24;77.82
49341;BME280;35209;51.050;13.678;2024-03-17T08:42:52;150521.63;;;7.36;73.73
49341;BME280;35209;51.050;13.678;2024-03-17T08:47:53;150535.78;;;7.42;72.31
49341;BME280;35209;51.050;13.678;2024-03-17T08:52:54;150583.44;;;7.61;71.34
49341;BME280;35209;51.050;13.678;2024-03-17T08:57:55;150552.56;;;7.48;73.77
49341;BME280;35209;51.050;13.678;2024-03-17T09:02:56;150635.00;;;7.81;68.80
49341;BME280;35209;51.050;13.678;2024-03-17T09:07:57;150558.97;;;7.51;68.59
49341;BME280;35209;51.050;13.678;2024-03-17T09:12:58;150673.63;;;7.96;66.98
49341;BME280;35209;51.050;13.678;2024-03-17T09:17:59;150606.63;;;7.70;68.81
49341;BME280;35209;51.050;13.678;2024-03-17T09:23:00;150655.59;;;7.89;68.16
49341;BME280;35209;51.050;13.678;2024-03-17T09:28:00;150689.13;;;8.02;65.56
49341;BME280;35209;51.050;13.678;2024-03-17T09:33:02;150656.91;;;7.90;66.68
49341;BME280;35209;51.050;13.678;2024-03-17T09:38:05;150809.00;;;8.50;61.42
49341;BME280;35209;51.050;13.678;2024-03-17T09:43:08;150859.28;;;8.70;61.85
49341;BME280;35209;51.050;13.678;2024-03-17T09:48:14;150892.81;;;8.83;59.98
49341;BME280;35209;51.050;13.678;2024-03-17T09:53:16;151036.00;;;9.40;58.49
49341;BME280;35209;51.050;13.678;2024-03-17T09:58:18;151047.59;;;9.44;58.70
49341;BME280;35209;51.050;13.678;2024-03-17T10:09:15;151135.34;;;9.79;57.27
49341;BME280;35209;51.050;13.678;2024-03-17T10:14:21;151059.22;;;9.49;57.35
49341;BME280;35209;51.050;13.678;2024-03-17T10:19:25;151059.22;;;9.49;58.27
49341;BME280;35209;51.050;13.678;2024-03-17T10:24:28;151148.25;;;9.84;58.83
49341;BME280;35209;51.050;13.678;2024-03-17T10:29:33;151208.88;;;10.08;58.98
49341;BME280;35209;51.050;13.678;2024-03-17T10:34:36;151077.25;;;9.56;58.61
49341;BME280;35209;51.050;13.678;2024-03-17T10:39:42;151055.31;;;9.47;56.43
49341;BME280;35209;51.050;13.678;2024-03-17T10:44:43;151096.59;;;9.64;58.05
49341;BME280;35209;51.050;13.678;2024-03-17T10:49:50;151195.97;;;10.03;54.72
49341;BME280;35209;51.050;13.678;2024-03-17T10:54:52;151246.34;;;10.23;56.79
49341;BME280;35209;51.050;13.678;2024-03-17T10:59:54;151208.88;;;10.08;53.97
49341;BME280;35209;51.050;13.678;2024-03-17T11:04:57;151038.56;;;9.41;58.19
49341;BME280;35209;51.050;13.678;2024-03-17T11:10:00;151139.19;;;9.80;56.48
49341;BME280;35209;51.050;13.678;2024-03-17T11:20:25;151212.78;;;10.09;53.89
49341;BME280;35209;51.050;13.678;2024-03-17T11:30:43;150966.34;;;9.12;58.42
49341;BME280;35209;51.050;13.678;2024-03-17T11:35:52;151179.22;;;9.96;56.72
49341;BME280;35209;51.050;13.678;2024-03-17T11:46:32;151354.81;;;10.66;54.11
49341;BME280;35209;51.050;13.678;2024-03-17T11:51:34;151575.69;;;11.53;54.41
49341;BME280;35209;51.050;13.678;2024-03-17T11:56:35;151499.47;;;11.23;53.37
49341;BME280;35209;51.050;13.678;2024-03-17T12:01:36;151329.00;;;10.55;53.80
49341;BME280;35209;51.050;13.678;2024-03-17T12:06:37;151115.97;;;9.71;56.18
49341;BME280;35209;51.050;13.678;2024-03-17T12:11:38;151048.88;;;9.45;57.57
49341;BME280;35209;51.050;13.678;2024-03-17T12:16:46;151039.84;;;9.41;57.08
49341;BME280;35209;51.050;13.678;2024-03-17T12:21:50;151033.41;;;9.39;56.74
49341;BME280;35209;51.050;13.678;2024-03-17T12:26:52;151045.03;;;9.43;56.22
49341;BME280;35209;51.050;13.678;2024-03-17T12:31:58;151052.75;;;9.46;54.75
49341;BME280;35209;51.050;13.678;2024-03-17T12:37:00;151034.72;;;9.39;54.31
49341;BME280;35209;51.050;13.678;2024-03-17T12:42:11;151097.88;;;9.64;54.26
49341;BME280;35209;51.050;13.678;2024-03-17T12:47:26;151172.75;;;9.94;54.58
49341;BME280;35209;51.050;13.678;2024-03-17T12:52:28;151198.53;;;10.04;51.48
49341;BME280;35209;51.050;13.678;2024-03-17T12:57:29;151170.19;;;9.93;51.46
49341;BME280;35209;51.050;13.678;2024-03-17T13:02:49;151223.06;;;10.14;52.29
49341;BME280;35209;51.050;13.678;2024-03-17T13:07:50;151201.16;;;10.05;54.90
49341;BME280;35209;51.050;13.678;2024-03-17T13:13:04;151201.16;;;10.05;55.68
49341;BME280;35209;51.050;13.678;2024-03-17T13:18:05;151153.38;;;9.86;57.44
49341;BME280;35209;51.050;13.678;2024-03-17T13:23:07;151125.00;;;9.75;57.37
49341;BME280;35209;51.050;13.678;2024-03-17T13:28:08;151085.00;;;9.59;56.99
49341;BME280;35209;51.050;13.678;2024-03-17T13:33:10;151106.94;;;9.68;57.73
49341;BME280;35209;51.050;13.678;2024-03-17T13:38:11;151068.25;;;9.52;58.07
49341;BME280;35209;51.050;13.678;2024-03-17T13:43:12;151101.78;;;9.66;56.72
49341;BME280;35209;51.050;13.678;2024-03-17T13:48:13;151078.56;;;9.56;56.45
49341;BME280;35209;51.050;13.678;2024-03-17T13:53:14;151109.50;;;9.69;56.38
49341;BME280;35209;51.050;13.678;2024-03-17T13:58:14;151110.78;;;9.69;54.63
49341;BME280;35209;51.050;13.678;2024-03-17T14:03:15;151113.41;;;9.70;54.41
49341;BME280;35209;51.050;13.678;2024-03-17T14:08:16;151127.59;;;9.76;54.24
49341;BME280;35209;51.050;13.678;2024-03-17T14:13:17;151069.53;;;9.53;55.62
49341;BME280;35209;51.050;13.678;2024-03-17T14:18:18;151028.22;;;9.37;56.70
49341;BME280;35209;51.050;13.678;2024-03-17T14:23:19;151043.69;;;9.43;56.87
49341;BME280;35209;51.050;13.678;2024-03-17T14:28:20;151038.56;;;9.41;56.52
49341;BME280;35209;51.050;13.678;2024-03-17T14:33:22;151038.56;;;9.41;57.43
49341;BME280;35209;51.050;13.678;2024-03-17T14:38:25;151110.78;;;9.69;55.72
49341;BME280;35209;51.050;13.678;2024-03-17T14:43:25;151050.16;;;9.45;57.02
49341;BME280;35209;51.050;13.678;2024-03-17T14:48:26;151016.63;;;9.32;57.20
49341;BME280;35209;51.050;13.678;2024-03-17T14:53:27;151043.69;;;9.43;55.55
49341;BME280;35209;51.050;13.678;2024-03-17T14:58:28;151042.41;;;9.42;56.15
49341;BME280;35209;51.050;13.678;2024-03-17T15:03:28;151021.78;;;9.34;56.67
49341;BME280;35209;51.050;13.678;2024-03-17T15:08:30;151055.31;;;9.47;55.16
49341;BME280;35209;51.050;13.678;2024-03-17T15:13:34;150998.56;;;9.25;56.75
49341;BME280;35209;51.050;13.678;2024-03-17T15:18:35;151023.09;;;9.34;56.94
49341;BME280;35209;51.050;13.678;2024-03-17T15:23:37;151006.31;;;9.28;56.49
49341;BME280;35209;51.050;13.678;2024-03-17T15:28:41;151011.50;;;9.30;56.16
49341;BME280;35209;51.050;13.678;2024-03-17T15:33:42;150954.75;;;9.07;57.99
49341;BME280;35209;51.050;13.678;2024-03-17T15:38:43;150905.72;;;8.88;58.36
49341;BME280;35209;51.050;13.678;2024-03-17T15:43:44;150903.13;;;8.87;59.15
49341;BME280;35209;51.050;13.678;2024-03-17T15:48:45;150887.69;;;8.81;57.38
49341;BME280;35209;51.050;13.678;2024-03-17T15:53:47;150883.78;;;8.79;57.17
49341;BME280;35209;51.050;13.678;2024-03-17T15:58:50;150868.34;;;8.73;56.67
49341;BME280;35209;51.050;13.678;2024-03-17T16:03:51;150834.81;;;8.60;57.56
49341;BME280;35209;51.050;13.678;2024-03-17T16:08:52;150833.53;;;8.59;57.94
49341;BME280;35209;51.050;13.678;2024-03-17T16:13:58;150810.31;;;8.50;57.96
49341;BME280;35209;51.050;13.678;2024-03-17T16:19:00;150771.59;;;8.35;58.19
49341;BME280;35209;51.050;13.678;2024-03-17T16:24:05;150769.00;;;8.34;58.50
49341;BME280;35209;51.050;13.678;2024-03-17T16:29:11;150766.44;;;8.33;59.07
49341;BME280;35209;51.050;13.678;2024-03-17T16:34:14;150726.47;;;8.17;59.57
49341;BME280;35209;51.050;13.678;2024-03-17T16:39:17;150700.72;;;8.07;60.33
49341;BME280;35209;51.050;13.678;2024-03-17T16:44:41;150658.19;;;7.90;61.47
49341;BME280;35209;51.050;13.678;2024-03-17T16:49:43;150629.81;;;7.79;60.27
49341;BME280;35209;51.050;13.678;2024-03-17T16:54:44;150640.13;;;7.83;59.93
49341;BME280;35209;51.050;13.678;2024-03-17T16:59:45;150627.25;;;7.78;60.35
49341;BME280;35209;51.050;13.678;2024-03-17T17:04:47;150570.56;;;7.55;61.77
49341;BME280;35209;51.050;13.678;2024-03-17T17:09:48;150568.00;;;7.54;61.93
49341;BME280;35209;51.050;13.678;2024-03-17T17:14:49;150492.00;;;7.24;63.22
49341;BME280;35209;51.050;13.678;2024-03-17T17:19:50;150441.81;;;7.04;64.58
49341;BME280;35209;51.050;13.678;2024-03-17T17:24:53;150467.53;;;7.15;64.15
49341;BME280;35209;51.050;13.678;2024-03-17T17:29:54;150445.66;;;7.06;65.19
49341;BME280;35209;51.050;13.678;2024-03-17T17:34:55;150436.63;;;7.02;64.79
49341;BME280;35209;51.050;13.678;2024-03-17T17:39:56;150377.41;;;6.79;66.40
49341;BME280;35209;51.050;13.678;2024-03-17T17:44:57;150346.50;;;6.67;67.57
49341;BME280;35209;51.050;13.678;2024-03-17T17:49:58;150445.66;;;7.06;69.53
49341;BME280;35209;51.050;13.678;2024-03-17T17:54:59;150396.75;;;6.87;67.46
49341;BME280;35209;51.050;13.678;2024-03-17T18:00:00;150367.09;;;6.75;68.21
49341;BME280;35209;51.050;13.678;2024-03-17T18:05:01;150390.28;;;6.84;67.93
49341;BME280;35209;51.050;13.678;2024-03-17T18:10:02;150413.44;;;6.93;67.21
49341;BME280;35209;51.050;13.678;2024-03-17T18:15:03;150343.94;;;6.66;69.01
49341;BME280;35209;51.050;13.678;2024-03-17T18:20:06;150309.19;;;6.52;71.02
49341;BME280;35209;51.050;13.678;2024-03-17T18:25:07;150345.22;;;6.66;70.20
49341;BME280;35209;51.050;13.678;2024-03-17T18:30:12;150293.72;;;6.46;70.22
49341;BME280;35209;51.050;13.678;2024-03-17T18:35:13;150246.13;;;6.27;72.33
49341;BME280;35209;51.050;13.678;2024-03-17T18:40:15;150255.13;;;6.30;71.82
49341;BME280;35209;51.050;13.678;2024-03-17T18:45:19;150256.41;;;6.31;71.70
49341;BME280;35209;51.050;13.678;2024-03-17T18:50:20;150156.00;;;5.91;73.89
49341;BME280;35209;51.050;13.678;2024-03-17T18:55:21;150143.16;;;5.86;75.25
49341;BME280;35209;51.050;13.678;2024-03-17T19:00:25;150110.97;;;5.73;76.68
49341;BME280;35209;51.050;13.678;2024-03-17T19:05:29;150125.13;;;5.79;78.55
49341;BME280;35209;51.050;13.678;2024-03-17T19:10:33;150152.16;;;5.90;75.84
49341;BME280;35209;51.050;13.678;2024-03-17T19:15:34;150095.56;;;5.67;75.36
49341;BME280;35209;51.050;13.678;2024-03-17T19:20:34;149997.81;;;5.28;78.49
49341;BME280;35209;51.050;13.678;2024-03-17T19:25:35;149999.09;;;5.29;80.10
49341;BME280;35209;51.050;13.678;2024-03-17T19:30:36;149975.94;;;5.20;79.28
49341;BME280;35209;51.050;13.678;2024-03-17T19:35:37;150019.69;;;5.37;78.01
49341;BME280;35209;51.050;13.678;2024-03-17T19:40:37;149997.81;;;5.28;78.40
49341;BME280;35209;51.050;13.678;2024-03-17T19:45:38;149999.09;;;5.29;79.57
49341;BME280;35209;51.050;13.678;2024-03-17T19:50:40;149972.13;;;5.18;79.53
49341;BME280;35209;51.050;13.678;2024-03-17T19:55:46;149929.69;;;5.01;79.60
49341;BME280;35209;51.050;13.678;2024-03-17T20:00:47;149901.38;;;4.90;81.63
49341;BME280;35209;51.050;13.678;2024-03-17T20:05:48;149821.69;;;4.59;81.55
49341;BME280;35209;51.050;13.678;2024-03-17T20:10:49;149798.56;;;4.49;83.04
49341;BME280;35209;51.050;13.678;2024-03-17T20:15:50;149758.72;;;4.34;84.30
49341;BME280;35209;51.050;13.678;2024-03-17T20:20:51;149780.56;;;4.42;83.49
49341;BME280;35209;51.050;13.678;2024-03-17T20:25:55;149713.75;;;4.16;83.77
49341;BME280;35209;51.050;13.678;2024-03-17T20:30:56;149698.34;;;4.10;85.09
49341;BME280;35209;51.050;13.678;2024-03-17T20:35:57;149675.22;;;4.00;84.33
49341;BME280;35209;51.050;13.678;2024-03-17T20:41:00;149691.91;;;4.07;84.58
49341;BME280;35209;51.050;13.678;2024-03-17T20:46:04;149621.28;;;3.79;85.66
49341;BME280;35209;51.050;13.678;2024-03-17T20:51:09;149654.69;;;3.92;86.05
49341;BME280;35209;51.050;13.678;2024-03-17T20:56:10;149602.00;;;3.71;87.07
49341;BME280;35209;51.050;13.678;2024-03-17T21:01:11;149607.16;;;3.73;87.84
49341;BME280;35209;51.050;13.678;2024-03-17T21:06:12;149521.13;;;3.39;88.51
49341;BME280;35209;51.050;13.678;2024-03-17T21:11:14;149510.84;;;3.35;89.40
49341;BME280;35209;51.050;13.678;2024-03-17T21:16:16;149518.56;;;3.38;88.83
49341;BME280;35209;51.050;13.678;2024-03-17T21:21:17;149517.28;;;3.38;86.91
49341;BME280;35209;51.050;13.678;2024-03-17T21:26:18;149522.41;;;3.40;86.22
49341;BME280;35209;51.050;13.678;2024-03-17T21:31:19;149456.94;;;3.14;87.75
49341;BME280;35209;51.050;13.678;2024-03-17T21:36:19;149430.00;;;3.03;88.61
49341;BME280;35209;51.050;13.678;2024-03-17T21:41:20;149459.53;;;3.15;87.54
49341;BME280;35209;51.050;13.678;2024-03-17T21:46:24;149399.19;;;2.91;88.83
49341;BME280;35209;51.050;13.678;2024-03-17T21:51:27;149409.47;;;2.95;89.27
49341;BME280;35209;51.050;13.678;2024-03-17T21:56:28;149358.09;;;2.74;90.67
49341;BME280;35209;51.050;13.678;2024-03-17T22:01:28;149362.00;;;2.76;89.42
49341;BME280;35209;51.050;13.678;2024-03-17T22:06:29;149327.34;;;2.62;89.88
49341;BME280;35209;51.050;13.678;2024-03-17T22:11:30;149273.47;;;2.41;91.93
49341;BME280;35209;51.050;13.678;2024-03-17T22:16:31;149227.28;;;2.22;93.10
49341;BME280;35209;51.050;13.678;2024-03-17T22:21:35;149265.75;;;2.38;93.26
49341;BME280;35209;51.050;13.678;2024-03-17T22:26:36;149326.06;;;2.62;90.82
49341;BME280;35209;51.050;13.678;2024-03-17T22:31:38;149206.75;;;2.14;93.47
49341;BME280;35209;51.050;13.678;2024-03-17T22:36:40;149197.78;;;2.11;94.90
49341;BME280;35209;51.050;13.678;2024-03-17T22:41:41;149218.31;;;2.19;94.53
49341;BME280;35209;51.050;13.678;2024-03-17T22:46:42;149220.84;;;2.20;93.79
49341;BME280;35209;51.050;13.678;2024-03-17T22:51:43;149226.00;;;2.22;94.18
49341;BME280;35209;51.050;13.678;2024-03-17T22:56:44;149175.97;;;2.02;93.19
49341;BME280;35209;51.050;13.678;2024-03-17T23:01:45;149142.63;;;1.89;93.59
49341;BME280;35209;51.050;13.678;2024-03-17T23:06:46;149093.94;;;1.69;95.15
49341;BME280;35209;51.050;13.678;2024-03-17T23:11:46;149105.47;;;1.74;95.74
49341;BME280;35209;51.050;13.678;2024-03-17T23:16:47;149068.25;;;1.59;96.54
49341;BME280;35209;51.050;13.678;2024-03-17T23:21:48;149136.25;;;1.86;94.68
49341;BME280;35209;51.050;13.678;2024-03-17T23:26:49;149115.72;;;1.78;95.92
49341;BME280;35209;51.050;13.678;2024-03-17T23:31:50;149087.50;;;1.67;95.09
49341;BME280;35209;51.050;13.678;2024-03-17T23:36:50;148999.06;;;1.32;97.13
49341;BME280;35209;51.050;13.678;2024-03-17T23:41:51;149027.28;;;1.43;98.45
49341;BME280;35209;51.050;13.678;2024-03-17T23:46:52;149074.69;;;1.62;95.74
49341;BME280;35209;51.050;13.678;2024-03-17T23:51:53;149008.03;;;1.35;96.76
49341;BME280;35209;51.050;13.678;2024-03-17T23:56:53;148970.88;;;1.20;98.25
